Time;durP1;ratioP1;P1;durP2;ratioP2;P2;SDS_P1;SDS_P2;PMS_P1;PMS_P2;Temp;Humidity;BMP_temperature;BMP_pressure;BME280_temperature;BME280_humidity;BME280_pressure;Samples;Min_cycle;Max_cycle;Signal;HPM_P1;HPM_P2
2021/12/23 00:02:06;;;;;;;4.27;2.27;;;;;;;-0.64;87.12;96629.97;5038228;28;20212;-68
2021/12/23 00:04:33;;;;;;;8.37;5.23;;;;;;;-0.50;87.19;96632.50;5037469;28;20228;-69
2021/12/23 00:07:00;;;;;;;5.93;3.83;;;;;;;-0.47;86.27;96617.59;5038440;28;21274;-68
2021/12/23 00:09:45;;;;;;;13.57;5.47;;;;;;;-0.63;86.90;96626.47;5038280;28;20227;-68
2021/12/23 00:12:12;;;;;;;13.57;6.77;;;;;;;-0.72;86.72;96629.66;5037502;28;20200;-69
2021/12/23 00:14:39;;;;;;;4.93;3.57;;;;;;;-0.90;87.52;96617.09;5037890;28;20219;-68
2021/12/23 00:17:21;;;;;;;6.70;4.93;;;;;;;-0.79;87.38;96619.81;5039149;28;20680;-69
2021/12/23 00:19:59;;;;;;;7.80;4.33;;;;;;;-0.44;87.43;96614.78;5037352;28;20345;-68
2021/12/23 00:25:10;;;;;;;13.20;6.03;;;;;;;-0.71;87.90;96610.63;5038306;28;20366;-69
2021/12/23 00:27:37;;;;;;;12.63;6.47;;;;;;;-0.88;87.80;96615.22;5037449;28;20208;-69
2021/12/23 00:30:05;;;;;;;9.60;4.93;;;;;;;-0.71;88.86;96610.63;5037869;28;20227;-69
2021/12/23 00:32:31;;;;;;;8.37;5.53;;;;;;;-0.85;88.83;96608.09;5037263;28;20219;-69
2021/12/23 00:34:59;;;;;;;6.43;4.23;;;;;;;-0.58;88.67;96604.53;5034529;28;20226;-69
2021/12/23 00:37:26;;;;;;;7.07;5.53;;;;;;;-0.92;88.79;96601.66;5037355;28;20212;-68
2021/12/23 00:39:52;;;;;;;9.07;4.57;;;;;;;-0.65;88.74;96601.63;5037379;28;20216;-69
2021/12/23 00:42:19;;;;;;;13.47;4.93;;;;;;;-0.65;88.24;96599.84;5036520;28;20262;-68
2021/12/23 00:44:47;;;;;;;9.57;4.80;;;;;;;-1.08;89.31;96590.66;5037160;28;20205;-68
2021/12/23 00:47:14;;;;;;;2.20;1.60;;;;;;;-1.19;90.20;96594.88;5037846;28;20217;-68
2021/12/23 00:49:40;;;;;;;3.90;3.47;;;;;;;-0.90;89.30;96596.41;5036948;28;20193;-69
2021/12/23 00:52:11;;;;;;;5.50;5.00;;;;;;;-0.90;90.31;96589.47;5037182;28;20203;-68
2021/12/23 00:54:38;;;;;;;5.07;2.77;;;;;;;-1.07;90.35;96600.09;5036979;28;20774;-68
2021/12/23 00:57:05;;;;;;;10.37;4.10;;;;;;;-0.80;89.40;96592.28;5037704;28;20210;-68
2021/12/23 00:59:32;;;;;;;12.27;5.83;;;;;;;-0.84;88.94;96601.16;5036639;28;20210;-68
2021/12/23 01:01:58;;;;;;;4.67;3.57;;;;;;;-1.14;89.55;96598.81;5037610;28;20238;-68
2021/12/23 01:04:25;;;;;;;2.90;2.70;;;;;;;-1.45;90.29;96600.03;5036473;28;20673;-68
2021/12/23 01:06:51;;;;;;;6.57;5.80;;;;;;;-1.13;88.79;96589.31;5036745;28;20230;-68
2021/12/23 01:09:21;;;;;;;10.47;4.77;;;;;;;-1.23;89.43;96595.16;5037542;28;20206;-69
2021/12/23 01:11:48;;;;;;;11.07;5.97;;;;;;;-1.45;89.57;96585.38;5037340;28;20234;-69
2021/12/23 01:14:27;;;;;;;3.40;2.77;;;;;;;-1.69;90.14;96593.81;5036119;28;20243;-68
2021/12/23 01:19:39;;;;;;;4.63;3.33;;;;;;;-1.38;89.24;96588.38;5037136;28;20211;-68
2021/12/23 01:22:06;;;;;;;3.60;1.63;;;;;;;-1.54;89.00;96583.34;5037145;28;20228;-68
2021/12/23 01:24:34;;;;;;;37.20;4.63;;;;;;;-1.23;88.93;96589.06;5035873;28;20204;-68
2021/12/23 01:27:00;;;;;;;3.50;2.70;;;;;;;-1.39;88.25;96581.56;5037535;28;20200;-68
2021/12/23 01:29:27;;;;;;;11.10;4.53;;;;;;;-1.23;87.53;96587.38;5037089;28;20204;-68
2021/12/23 01:31:54;;;;;;;5.67;3.43;;;;;;;-1.40;87.93;96587.63;5036606;28;20198;-69
2021/12/23 01:34:20;;;;;;;12.60;5.23;;;;;;;-1.23;87.34;96591.63;5036594;28;20220;-68
2021/12/23 01:36:47;;;;;;;10.03;5.27;;;;;;;-1.23;87.16;96587.38;5034418;28;20215;-68
2021/12/23 01:39:14;;;;;;;9.17;3.77;;;;;;;-1.18;86.39;96581.84;5037018;28;21347;-69
2021/12/23 01:41:42;;;;;;;4.87;4.23;;;;;;;-0.80;86.14;96569.00;5036572;28;21037;-69
2021/12/23 01:44:08;;;;;;;18.00;5.20;;;;;;;-1.34;87.32;96584.69;5036324;28;20220;-69
2021/12/23 01:46:35;;;;;;;5.27;3.53;;;;;;;-1.31;87.21;96577.56;5036711;28;20200;-69
2021/12/23 01:49:01;;;;;;;4.23;2.70;;;;;;;-1.40;86.95;96585.06;5037128;28;20197;-68
2021/12/23 01:51:28;;;;;;;3.73;3.43;;;;;;;-1.67;87.92;96584.22;5036456;28;20204;-68
2021/12/23 01:53:55;;;;;;;3.23;2.93;;;;;;;-1.70;88.44;96577.47;5036113;28;20243;-69
2021/12/23 01:56:24;;;;;;;6.63;5.53;;;;;;;-1.27;87.83;96579.03;5036093;28;20207;-68
2021/12/23 01:58:53;;;;;;;9.20;4.00;;;;;;;-1.54;89.18;96580.78;5036758;28;20206;-68
2021/12/23 02:01:19;;;;;;;5.13;2.70;;;;;;;-2.17;91.12;96571.00;5036115;28;20227;-68
2021/12/23 02:03:46;;;;;;;12.10;4.90;;;;;;;-2.06;90.75;96573.75;5035769;28;20221;-68
2021/12/23 02:06:13;;;;;;;4.87;3.83;;;;;;;-1.65;89.42;96557.34;5036454;28;20211;-68
2021/12/23 02:08:40;;;;;;;4.73;4.07;;;;;;;-1.48;88.77;96558.88;5036636;28;20198;-68
2021/12/23 02:11:10;;;;;;;9.13;4.47;;;;;;;-1.74;90.04;96555.34;5036353;28;20203;-68
2021/12/23 02:13:37;;;;;;;6.77;4.50;;;;;;;-1.59;89.23;96553.53;5035788;28;20224;-68
2021/12/23 02:16:07;;;;;;;2.87;2.23;;;;;;;-1.60;90.24;96557.09;5036260;28;20202;-69
2021/12/23 02:18:35;;;;;;;3.43;3.13;;;;;;;-1.85;90.69;96551.78;5036065;28;20222;-68
2021/12/23 02:21:05;;;;;;;5.60;4.07;;;;;;;-1.03;89.12;96538.63;5036433;28;20704;-69
2021/12/23 02:23:31;;;;;;;9.87;5.33;;;;;;;-1.41;88.65;96547.22;5035468;28;21098;-69
2021/12/23 02:25:58;;;;;;;29.40;5.83;;;;;;;-1.50;89.01;96545.22;5036540;28;20231;-68
2021/12/23 02:28:26;;;;;;;6.33;1.90;;;;;;;-1.70;90.21;96546.47;5036619;28;20593;-68
2021/12/23 02:30:53;;;;;;;16.30;4.20;;;;;;;-1.35;89.14;96542.50;5036348;28;20257;-68
2021/12/23 02:33:21;;;;;;;15.53;6.27;;;;;;;-1.13;87.93;96527.25;5035216;28;20232;-68
2021/12/23 02:35:48;;;;;;;8.20;3.53;;;;;;;-1.75;90.23;96533.03;5033116;28;20208;-69
2021/12/23 02:38:16;;;;;;;3.10;2.80;;;;;;;-1.36;89.80;96527.91;5038763;28;20199;-69
2021/12/23 02:40:43;;;;;;;9.40;4.43;;;;;;;-1.16;88.91;96523.13;5039682;28;20239;-69
2021/12/23 02:43:13;;;;;;;11.90;4.40;;;;;;;-1.14;88.67;96521.25;5038698;28;20236;-68
2021/12/23 02:45:40;;;;;;;7.80;4.20;;;;;;;-1.15;88.53;96511.81;5040385;28;20201;-69
2021/12/23 02:48:12;;;;;;;9.83;4.73;;;;;;;-0.72;88.29;96520.19;5039969;28;20199;-69
2021/12/23 02:50:39;;;;;;;5.63;4.07;;;;;;;-1.35;88.95;96529.59;5040330;28;20230;-68
2021/12/23 02:53:05;;;;;;;9.73;4.03;;;;;;;-1.09;88.33;96503.69;5038790;28;20716;-69
2021/12/23 02:55:33;;;;;;;9.87;3.53;;;;;;;-1.38;89.45;96506.50;5039557;28;20199;-68
2021/12/23 02:57:59;;;;;;;13.23;5.07;;;;;;;-1.44;88.81;96500.91;5039251;28;20214;-69
2021/12/23 03:00:26;;;;;;;20.40;3.57;;;;;;;-1.35;88.83;96495.13;5039648;28;20208;-68
2021/12/23 03:02:52;;;;;;;4.53;4.13;;;;;;;-1.35;88.80;96495.13;5038499;28;20236;-68
2021/12/23 03:05:19;;;;;;;8.90;5.63;;;;;;;-1.65;89.83;96508.28;5039227;28;20204;-68
2021/12/23 03:07:45;;;;;;;6.60;3.53;;;;;;;-1.51;89.46;96503.06;5039185;28;20557;-69
2021/12/23 03:10:12;;;;;;;9.20;4.50;;;;;;;-1.09;88.41;96503.69;5038960;28;20208;-68
2021/12/23 03:12:40;;;;;;;4.97;4.13;;;;;;;-1.00;88.87;96490.13;5038074;28;20220;-68
2021/12/23 03:15:07;;;;;;;6.57;5.40;;;;;;;-1.16;88.58;96491.25;5038971;28;20212;-68
2021/12/23 03:17:34;;;;;;;10.13;3.63;;;;;;;-1.04;88.03;96496.44;5039719;28;20197;-68
2021/12/23 03:20:01;;;;;;;14.60;7.53;;;;;;;-0.96;87.91;96490.78;5038684;28;20567;-68
2021/12/23 03:22:28;;;;;;;18.90;3.37;;;;;;;-0.99;88.19;96481.47;5038558;28;21628;-68
2021/12/23 03:24:54;;;;;;;11.93;3.93;;;;;;;-1.20;88.23;96466.53;5038960;28;20207;-68
2021/12/23 03:27:21;;;;;;;5.97;4.63;;;;;;;-1.22;88.74;96464.06;5035395;28;20210;-69
2021/12/23 03:29:49;;;;;;;9.40;6.37;;;;;;;-0.97;89.13;96463.25;5038499;28;20216;-69
2021/12/23 03:32:15;;;;;;;7.53;5.17;;;;;;;-1.05;88.41;96461.16;5038300;28;20207;-69
2021/12/23 03:34:42;;;;;;;4.60;3.53;;;;;;;-1.10;88.51;96470.19;5036067;28;20569;-69
2021/12/23 03:37:08;;;;;;;5.70;4.00;;;;;;;-1.20;89.00;96463.94;5038857;28;20215;-68
2021/12/23 03:39:35;;;;;;;15.80;6.03;;;;;;;-1.02;88.98;96453.22;5038818;28;20205;-68
2021/12/23 03:42:01;;;;;;;6.27;4.00;;;;;;;-1.33;89.85;96452.75;5038929;28;20224;-68
2021/12/23 03:44:28;;;;;;;8.10;3.67;;;;;;;-1.25;89.21;96445.31;5037391;28;20244;-68
2021/12/23 03:46:56;;;;;;;25.97;5.80;;;;;;;-1.15;89.71;96454.13;5038721;28;20214;-68
2021/12/23 03:49:22;;;;;;;14.33;6.10;;;;;;;-1.18;89.04;96446.59;5038908;28;20299;-68
2021/12/23 03:51:49;;;;;;;4.67;2.70;;;;;;;-1.10;88.94;96439.97;5038157;28;20207;-69
2021/12/23 03:54:15;;;;;;;7.67;3.63;;;;;;;-1.20;89.12;96444.13;5036931;28;20240;-68
2021/12/23 03:56:43;;;;;;;23.03;7.33;;;;;;;-1.24;89.92;96435.84;5038891;28;20251;-69
2021/12/23 03:59:10;;;;;;;7.87;3.67;;;;;;;-1.16;89.60;96435.22;5038477;28;20208;-68
2021/12/23 04:01:37;;;;;;;10.00;5.63;;;;;;;-1.30;90.41;96431.06;5037678;28;20227;-68
2021/12/23 04:04:05;;;;;;;4.50;4.20;;;;;;;-1.05;90.76;96430.16;5037622;28;20309;-69
2021/12/23 04:06:31;;;;;;;17.37;9.03;;;;;;;-1.22;91.09;96414.94;5038357;28;20197;-69
2021/12/23 04:08:58;;;;;;;11.07;6.73;;;;;;;-1.18;90.35;96411.22;5038009;28;20668;-68
2021/12/23 04:11:24;;;;;;;9.17;5.67;;;;;;;-0.90;89.58;96408.44;5038075;28;20959;-69
2021/12/23 04:13:52;;;;;;;8.00;5.37;;;;;;;-1.20;90.08;96405.34;5037460;28;20235;-68
2021/12/23 04:16:19;;;;;;;10.87;6.30;;;;;;;-0.73;88.79;96400.34;5037384;28;20202;-69
2021/12/23 04:18:46;;;;;;;5.47;3.57;;;;;;;-0.71;88.62;96389.88;5038079;28;20208;-68
2021/12/23 04:21:15;;;;;;;13.77;5.70;;;;;;;-0.61;90.06;96389.16;5037676;28;20662;-68
2021/12/23 04:23:42;;;;;;;6.67;3.37;;;;;;;-1.07;89.80;96398.41;5036888;28;20223;-69
2021/12/23 04:26:09;;;;;;;3.93;2.83;;;;;;;-0.99;90.01;96403.06;5037708;28;20675;-68
2021/12/23 04:28:45;;;;;;;7.50;4.17;;;;;;;-0.92;90.85;96415.44;5037980;28;20205;-68
2021/12/23 04:31:12;;;;;;;17.30;6.73;;;;;;;-1.07;90.81;96408.75;5037426;28;20201;-68
2021/12/23 04:33:38;;;;;;;8.37;5.90;;;;;;;-0.87;90.35;96404.81;5037175;28;20221;-68
2021/12/23 04:36:07;;;;;;;10.00;5.33;;;;;;;-0.66;89.58;96409.34;5035032;28;20200;-68
2021/12/23 04:38:34;;;;;;;3.20;2.47;;;;;;;-0.66;90.26;96399.00;5037725;28;20204;-69
2021/12/23 04:41:01;;;;;;;5.53;2.40;;;;;;;-0.73;90.13;96400.34;5037244;28;20203;-68
2021/12/23 04:43:27;;;;;;;12.20;6.63;;;;;;;-0.65;89.26;96385.09;5036848;28;20247;-68
2021/12/23 04:45:54;;;;;;;5.03;3.30;;;;;;;-0.92;90.00;96387.00;5037443;28;20208;-68
2021/12/23 04:48:20;;;;;;;2.87;2.67;;;;;;;-1.00;90.13;96378.13;5036928;28;20215;-68
2021/12/23 04:50:47;;;;;;;4.10;3.70;;;;;;;-1.07;89.65;96375.13;5038098;28;20215;-68
2021/12/23 04:53:13;;;;;;;5.30;4.80;;;;;;;-0.89;90.09;96373.88;5036470;28;20602;-69
2021/12/23 04:55:42;;;;;;;5.30;3.20;;;;;;;-0.77;90.27;96367.84;5036801;28;20211;-68
2021/12/23 04:58:09;;;;;;;10.50;4.93;;;;;;;-1.02;90.46;96365.31;5037710;28;20210;-68
2021/12/23 05:00:36;;;;;;;7.83;3.03;;;;;;;-0.97;90.08;96362.41;5037033;28;20211;-68
2021/12/23 05:03:02;;;;;;;8.40;6.10;;;;;;;-0.67;89.42;96349.94;5036184;28;20231;-68
2021/12/23 05:05:29;;;;;;;6.20;4.03;;;;;;;-0.77;88.51;96348.94;5036826;28;20210;-68
2021/12/23 05:07:56;;;;;;;6.00;3.03;;;;;;;-0.62;88.86;96349.50;5037669;28;20208;-68
2021/12/23 05:10:25;;;;;;;17.17;4.53;;;;;;;-0.59;88.63;96351.91;5036939;28;20212;-68
2021/12/23 05:12:53;;;;;;;12.03;8.13;;;;;;;-0.21;88.04;96344.00;5035801;28;20741;-69
2021/12/23 05:15:20;;;;;;;5.57;2.83;;;;;;;-0.32;88.27;96341.34;5037305;28;20226;-68
2021/12/23 05:17:47;;;;;;;5.17;4.30;;;;;;;-0.77;88.99;96339.41;5036876;28;21009;-69
2021/12/23 05:20:16;;;;;;;6.37;4.03;;;;;;;-0.22;87.99;96337.97;5037783;28;20220;-69
2021/12/23 05:22:42;;;;;;;18.13;7.93;;;;;;;-0.63;88.64;96327.16;5035796;28;20315;-69
2021/12/23 05:25:10;;;;;;;6.27;3.07;;;;;;;-0.79;89.49;96330.94;5037143;28;20205;-68
2021/12/23 05:27:36;;;;;;;8.10;3.73;;;;;;;-0.87;89.39;96333.22;5036686;28;20246;-69
2021/12/23 05:30:05;;;;;;;4.03;3.63;;;;;;;-0.60;89.60;96331.28;5037558;28;20581;-69
2021/12/23 05:32:32;;;;;;;17.30;6.00;;;;;;;-0.63;88.29;96327.16;5035810;28;20220;-68
2021/12/23 05:34:58;;;;;;;7.70;3.67;;;;;;;-0.87;89.55;96317.69;5033435;28;20211;-68
2021/12/23 05:37:25;;;;;;;5.33;4.23;;;;;;;-0.61;88.72;96325.28;5036707;28;20219;-68
2021/12/23 05:39:52;;;;;;;4.87;2.73;;;;;;;-0.63;88.47;96319.38;5036942;28;20215;-68
2021/12/23 05:42:18;;;;;;;4.23;3.40;;;;;;;-0.62;88.09;96328.00;5036095;28;20241;-68
2021/12/23 05:44:45;;;;;;;5.80;4.43;;;;;;;-0.71;88.30;96327.78;5036727;28;20197;-68
2021/12/23 05:47:13;;;;;;;9.27;5.47;;;;;;;-0.46;88.55;96333.72;5037235;28;20202;-68
2021/12/23 05:49:39;;;;;;;11.80;6.07;;;;;;;-0.27;87.36;96323.72;5036230;28;20686;-68
2021/12/23 05:52:06;;;;;;;6.10;5.30;;;;;;;-0.43;87.35;96333.53;5036855;28;20214;-69
2021/12/23 05:54:33;;;;;;;9.67;5.53;;;;;;;-0.38;87.03;96336.59;5036059;28;20235;-68
2021/12/23 05:57:02;;;;;;;7.97;4.50;;;;;;;-0.30;86.90;96349.84;5036718;28;20201;-69
2021/12/23 05:59:28;;;;;;;5.00;3.60;;;;;;;-0.29;86.90;96346.31;5036519;28;20211;-69
2021/12/23 06:01:55;;;;;;;9.90;3.67;;;;;;;0.06;85.21;96348.00;5036855;28;20763;-69
2021/12/23 06:04:23;;;;;;;12.60;4.90;;;;;;;0.33;85.12;96341.63;5035142;28;20419;-69
2021/12/23 06:06:49;;;;;;;6.83;5.23;;;;;;;0.11;85.12;96327.75;5036667;28;20227;-69
2021/12/23 06:09:16;;;;;;;5.93;3.80;;;;;;;0.08;84.78;96313.28;5037492;28;20220;-69
2021/12/23 06:11:42;;;;;;;12.97;7.37;;;;;;;0.14;84.66;96318.00;5037948;28;20209;-69
2021/12/23 06:14:09;;;;;;;10.33;5.17;;;;;;;0.06;85.09;96314.31;5038985;28;20736;-69
2021/12/23 06:16:35;;;;;;;21.23;7.20;;;;;;;-0.13;85.30;96328.72;5040585;28;20240;-69
2021/12/23 06:19:02;;;;;;;14.70;4.73;;;;;;;-0.24;86.17;96318.31;5040354;28;20201;-69
2021/12/23 06:21:31;;;;;;;8.43;7.03;;;;;;;0.31;84.73;96317.59;5040125;28;20294;-69
2021/12/23 06:23:59;;;;;;;12.57;6.17;;;;;;;0.26;84.44;96324.06;5039524;28;20224;-69
2021/12/23 06:26:25;;;;;;;8.20;4.93;;;;;;;-0.01;84.47;96332.06;5040183;28;20832;-69
2021/12/23 06:28:52;;;;;;;14.37;5.43;;;;;;;0.00;84.90;96318.19;5039752;28;20208;-69
2021/12/23 06:31:18;;;;;;;7.27;5.23;;;;;;;0.06;85.03;96315.16;5037818;28;20213;-69
2021/12/23 06:33:45;;;;;;;19.00;5.17;;;;;;;0.16;84.34;96316.13;5038124;28;20224;-69
2021/12/23 06:36:13;;;;;;;15.70;7.90;;;;;;;-0.53;86.28;96322.16;5035950;28;20212;-69
2021/12/23 06:38:41;;;;;;;16.13;6.10;;;;;;;-0.13;86.36;96326.94;5039003;28;20232;-69
2021/12/23 06:41:08;;;;;;;9.80;3.93;;;;;;;-0.10;85.28;96318.13;5039416;28;20200;-69
2021/12/23 06:43:34;;;;;;;11.63;5.67;;;;;;;-0.06;84.28;96316.97;5037771;28;21025;-69
2021/12/23 06:46:02;;;;;;;8.77;3.33;;;;;;;-0.17;85.05;96315.16;5038065;28;20201;-69
2021/12/23 06:48:29;;;;;;;3.90;3.50;;;;;;;-0.05;84.59;96314.28;5038687;28;20327;-70
2021/12/23 06:50:56;;;;;;;18.20;5.40;;;;;;;-0.23;84.65;96310.44;5038655;28;20205;-70
2021/12/23 06:53:23;;;;;;;4.80;3.70;;;;;;;0.09;84.11;96307.16;5038498;28;20220;-69
2021/12/23 06:55:52;;;;;;;10.13;5.43;;;;;;;0.06;84.13;96311.72;5038827;28;20205;-70
2021/12/23 06:58:19;;;;;;;19.07;4.80;;;;;;;-0.09;84.20;96318.03;5039687;28;20220;-69
2021/12/23 07:00:46;;;;;;;20.97;5.00;;;;;;;-0.32;85.71;96318.03;5038899;28;20205;-69
2021/12/23 07:03:13;;;;;;;6.47;3.90;;;;;;;-0.24;84.71;96315.72;5038365;28;20240;-69
2021/12/23 07:05:39;;;;;;;11.37;5.63;;;;;;;-0.21;84.55;96315.50;5039811;28;20205;-69
2021/12/23 07:08:10;;;;;;;14.37;5.30;;;;;;;-0.04;83.24;96313.34;5039907;28;20223;-69
2021/12/23 07:10:37;;;;;;;8.93;4.03;;;;;;;-0.11;84.38;96306.16;5039313;28;20197;-70
2021/12/23 07:13:06;;;;;;;8.20;4.73;;;;;;;0.05;83.83;96310.91;5038072;28;20220;-69
2021/12/23 07:15:34;;;;;;;16.20;6.47;;;;;;;-0.28;85.08;96311.69;5039456;28;20216;-70
2021/12/23 07:18:01;;;;;;;20.27;7.43;;;;;;;-0.32;85.45;96315.44;5039408;28;20304;-69
2021/12/23 07:20:29;;;;;;;23.03;7.50;;;;;;;-0.07;84.27;96317.94;5039278;28;20197;-70
2021/12/23 07:22:57;;;;;;;11.60;5.90;;;;;;;0.07;84.09;96303.84;5037452;28;20232;-69
2021/12/23 07:25:24;;;;;;;21.13;6.97;;;;;;;-0.10;83.56;96307.78;5039605;28;20193;-70
2021/12/23 07:27:50;;;;;;;16.20;9.67;;;;;;;-0.08;83.24;96308.50;5038535;28;20208;-69
2021/12/23 07:30:20;;;;;;;23.80;14.53;;;;;;;0.10;83.65;96302.78;5039224;28;20212;-69
2021/12/23 07:32:47;;;;;;;43.80;17.70;;;;;;;-0.23;84.97;96315.63;5038333;28;20233;-69
2021/12/23 07:35:14;;;;;;;25.87;11.67;;;;;;;-0.08;83.71;96313.69;5036396;28;20218;-69
2021/12/23 07:37:41;;;;;;;14.47;5.97;;;;;;;0.15;83.68;96308.47;5038297;28;20201;-69
2021/12/23 07:40:13;;;;;;;20.63;9.03;;;;;;;0.22;83.89;96313.09;5039275;28;20197;-70
2021/12/23 07:42:44;;;;;;;20.00;8.07;;;;;;;-0.08;83.70;96311.09;5037760;28;20239;-68
2021/12/23 07:45:10;;;;;;;4.97;3.17;;;;;;;-0.35;84.81;96320.84;5039197;28;20302;-69
2021/12/23 07:47:38;;;;;;;15.60;6.00;;;;;;;0.01;85.00;96311.25;5038403;28;21101;-68
2021/12/23 07:50:06;;;;;;;15.57;3.60;;;;;;;0.03;84.67;96299.84;5038891;28;20209;-70
2021/12/23 07:52:33;;;;;;;3.83;3.30;;;;;;;-0.21;84.69;96307.75;5037444;28;20739;-68
2021/12/23 07:54:59;;;;;;;9.20;5.13;;;;;;;-0.28;85.84;96306.53;5038338;28;20203;-69
2021/12/23 07:57:26;;;;;;;15.27;6.63;;;;;;;-0.23;85.94;96309.59;5037880;28;20316;-68
2021/12/23 07:59:52;;;;;;;18.90;7.37;;;;;;;-0.43;87.23;96313.63;5038420;28;20200;-68
2021/12/23 08:02:19;;;;;;;10.47;4.03;;;;;;;-0.33;86.65;96308.63;5037760;28;20208;-68
2021/12/23 08:04:47;;;;;;;17.20;6.67;;;;;;;-0.03;85.95;96309.81;5038640;28;20200;-68
2021/12/23 08:07:13;;;;;;;5.57;3.77;;;;;;;-0.16;85.65;96295.31;5038581;28;20213;-69
2021/12/23 08:09:40;;;;;;;9.23;4.27;;;;;;;0.11;84.89;96296.69;5037656;28;20197;-69
2021/12/23 08:12:08;;;;;;;23.53;6.53;;;;;;;-0.07;86.12;96315.34;5038417;28;21370;-69
2021/12/23 08:14:34;;;;;;;12.10;5.57;;;;;;;-0.09;85.53;96299.88;5037987;28;20258;-68
2021/12/23 08:17:01;;;;;;;4.83;4.07;;;;;;;-0.17;85.77;96294.44;5038065;28;20209;-69
2021/12/23 08:19:27;;;;;;;29.50;5.60;;;;;;;-0.07;85.60;96285.09;5037819;28;20275;-68
2021/12/23 08:21:55;;;;;;;11.17;7.27;;;;;;;0.42;84.55;96298.63;5037955;28;20212;-68
2021/12/23 08:24:22;;;;;;;9.60;6.13;;;;;;;0.14;84.05;96294.69;5036849;28;20235;-69
2021/12/23 08:26:52;;;;;;;11.03;5.63;;;;;;;0.18;84.91;96303.91;5038033;28;21020;-68
2021/12/23 08:29:19;;;;;;;7.83;5.43;;;;;;;0.22;85.28;96305.31;5037746;28;20209;-69
2021/12/23 08:31:46;;;;;;;12.77;5.80;;;;;;;0.21;84.77;96295.88;5037798;28;20219;-68
2021/12/23 08:34:13;;;;;;;10.60;4.53;;;;;;;0.08;86.22;96294.31;5037036;28;20223;-68
2021/12/23 08:36:40;;;;;;;4.13;3.00;;;;;;;0.21;84.63;96295.88;5034883;28;20301;-69
2021/12/23 08:39:08;;;;;;;12.77;5.30;;;;;;;0.09;86.91;96298.56;5037306;28;20212;-68
2021/12/23 08:41:34;;;;;;;8.43;4.33;;;;;;;0.39;85.31;96291.91;5037808;28;20227;-68
2021/12/23 08:44:01;;;;;;;11.40;6.50;;;;;;;0.68;83.70;96290.56;5036997;28;20220;-68
2021/12/23 08:46:27;;;;;;;3.97;3.23;;;;;;;0.60;83.96;96290.31;5037607;28;20248;-68
2021/12/23 08:48:54;;;;;;;18.97;7.57;;;;;;;0.36;84.66;96291.34;5037683;28;20216;-69
2021/12/23 08:51:20;;;;;;;15.33;6.20;;;;;;;0.45;84.45;96288.06;5037317;28;20212;-68
2021/12/23 08:53:47;;;;;;;13.20;7.27;;;;;;;0.59;84.59;96283.47;5035118;28;20223;-69
2021/12/23 08:56:14;;;;;;;23.70;7.93;;;;;;;0.85;84.92;96300.47;5035000;28;20235;-69
2021/12/23 08:58:42;;;;;;;22.77;7.40;;;;;;;0.74;84.53;96297.88;5035809;28;20201;-68
2021/12/23 09:01:11;;;;;;;13.40;5.47;;;;;;;0.67;84.55;96296.69;5035966;28;20666;-68
2021/12/23 09:03:38;;;;;;;10.57;5.80;;;;;;;0.84;85.15;96291.03;5036509;28;20663;-68
2021/12/23 09:06:05;;;;;;;12.33;6.47;;;;;;;0.96;84.38;96284.91;5037313;28;20209;-69
2021/12/23 09:08:32;;;;;;;11.67;7.17;;;;;;;0.89;83.71;96270.75;5037030;28;20208;-69
2021/12/23 09:11:00;;;;;;;14.07;7.20;;;;;;;1.09;83.80;96263.09;5036927;28;20224;-68
2021/12/23 09:13:28;;;;;;;5.13;4.03;;;;;;;1.22;83.57;96267.22;5036453;28;20696;-69
2021/12/23 09:15:55;;;;;;;8.50;4.80;;;;;;;0.97;83.32;96271.81;5037584;28;20700;-68
2021/12/23 09:18:22;;;;;;;23.10;5.47;;;;;;;1.26;83.35;96268.63;5037218;28;20203;-69
2021/12/23 09:20:49;;;;;;;11.07;5.57;;;;;;;1.26;83.69;96273.81;5036215;28;20212;-68
2021/12/23 09:23:17;;;;;;;14.50;5.23;;;;;;;1.25;83.14;96284.31;5040962;28;20229;-69
2021/12/23 09:25:46;;;;;;;10.77;4.27;;;;;;;1.22;83.99;96285.38;5041591;28;20632;-69
2021/12/23 09:33:44;;;;;;;13.80;5.30;;;;;;;1.75;82.88;96255.97;5041396;28;20227;-69
2021/12/23 09:36:11;;;;;;;4.50;4.07;;;;;;;1.66;82.84;96259.31;5040411;28;20208;-69
2021/12/23 09:38:38;;;;;;;8.37;4.93;;;;;;;1.57;82.33;96241.06;5041548;28;20201;-69
2021/12/23 09:41:08;;;;;;;18.83;9.07;;;;;;;1.57;82.77;96246.25;5041009;28;20208;-69
2021/12/23 09:43:36;;;;;;;16.70;4.93;;;;;;;1.57;82.83;96252.25;5039738;28;20232;-69
2021/12/23 09:46:05;;;;;;;16.00;6.47;;;;;;;1.76;82.88;96265.41;5040482;28;20682;-69
2021/12/23 09:48:33;;;;;;;11.97;6.57;;;;;;;1.59;82.22;96265.94;5044048;28;21211;-69
2021/12/23 09:51:01;;;;;;;3.40;2.70;;;;;;;1.46;83.11;96278.22;5043280;28;20505;-69
2021/12/23 09:53:30;;;;;;;18.63;6.87;;;;;;;1.60;83.52;96270.19;5042206;28;20949;-69
2021/12/23 09:55:57;;;;;;;8.43;6.17;;;;;;;1.72;83.16;96269.22;5043546;28;20202;-69
2021/12/23 09:58:24;;;;;;;12.30;5.57;;;;;;;1.55;83.54;96243.75;5042882;28;20207;-69
2021/12/23 10:00:52;;;;;;;8.27;4.57;;;;;;;1.84;83.23;96231.84;5043550;28;20208;-69
2021/12/23 10:03:22;;;;;;;5.73;4.07;;;;;;;1.89;83.32;96219.31;5041643;28;20230;-69
2021/12/23 10:05:49;;;;;;;9.57;5.43;;;;;;;2.04;82.00;96212.88;5042544;28;20212;-69
2021/12/23 10:08:16;;;;;;;25.73;8.63;;;;;;;1.90;81.70;96210.56;5043126;28;20228;-69
2021/12/23 10:10:48;;;;;;;8.23;4.00;;;;;;;2.11;82.13;96217.41;5041991;28;20203;-69
2021/12/23 10:38:27;;;;;;;9.37;4.60;;;;;;;2.07;84.11;96187.44;5040396;28;20752;-69
2021/12/23 10:40:56;;;;;;;4.43;2.97;;;;;;;2.57;83.03;96174.44;5041240;28;20205;-69
2021/12/23 10:43:28;;;;;;;16.97;7.07;;;;;;;2.68;82.00;96174.34;5039134;28;20221;-69
2021/12/23 10:45:58;;;;;;;5.30;2.97;;;;;;;2.52;82.49;96171.41;5040261;28;20205;-69
2021/12/23 10:48:28;;;;;;;16.80;5.57;;;;;;;2.64;82.49;96167.75;5040334;28;20226;-69
2021/12/23 10:51:03;;;;;;;13.53;4.83;;;;;;;2.65;82.27;96166.00;5040649;28;20610;-69
2021/12/23 10:53:54;;;;;;;15.77;5.67;;;;;;;3.14;81.89;96156.41;5038721;28;20232;-69
2021/12/23 10:59:11;;;;;;;10.60;5.07;;;;;;;2.92;81.23;96151.41;5039500;28;20255;-69
2021/12/23 11:02:09;;;;;;;8.17;5.40;;;;;;;3.39;80.10;96151.50;5041154;28;20197;-69
2021/12/23 11:04:57;;;;;;;8.80;3.93;;;;;;;3.55;80.03;96143.16;5040418;28;20231;-69
2021/12/23 11:07:38;;;;;;;10.37;5.40;;;;;;;3.15;80.59;96142.44;5040553;28;20237;-69
2021/12/23 11:10:16;;;;;;;5.13;4.70;;;;;;;2.86;81.07;96143.31;5040425;28;21038;-69
2021/12/23 11:30:20;;;;;;;7.47;4.90;;;;;;;3.16;81.09;96118.06;5039921;28;20711;-69
2021/12/23 11:38:13;;;;;;;9.83;5.17;;;;;;;3.41;80.19;96099.28;5039703;28;20219;-69
2021/12/23 11:40:55;;;;;;;6.00;3.53;;;;;;;3.53;80.37;96082.56;5039407;28;20205;-69
2021/12/23 11:43:30;;;;;;;5.10;2.87;;;;;;;3.41;80.31;96089.69;5038200;28;20267;-69
2021/12/23 11:45:57;;;;;;;3.33;3.03;;;;;;;3.47;80.47;96083.91;5039019;28;20206;-69
2021/12/23 11:48:23;;;;;;;19.83;6.83;;;;;;;3.47;80.65;96088.31;5038948;28;20576;-69
2021/12/23 11:51:06;;;;;;;10.60;5.03;;;;;;;3.41;80.36;96089.69;5038530;28;20215;-69
2021/12/23 11:53:34;;;;;;;12.23;5.40;;;;;;;3.86;79.65;96082.94;5037884;28;20324;-70
2021/12/23 11:56:05;;;;;;;8.37;3.00;;;;;;;3.70;80.64;96075.69;5039165;28;20223;-69
2021/12/23 11:58:32;;;;;;;6.43;4.30;;;;;;;3.63;79.93;96074.59;5038447;28;20217;-69
2021/12/23 12:01:04;;;;;;;7.07;2.23;;;;;;;4.14;79.53;96059.38;5038889;28;20208;-70
2021/12/23 12:03:31;;;;;;;6.10;4.33;;;;;;;3.97;79.85;96073.16;5037492;28;20244;-70
2021/12/23 12:06:14;;;;;;;11.83;4.83;;;;;;;4.42;78.75;96063.66;5038172;28;20563;-70
2021/12/23 12:08:40;;;;;;;7.43;4.77;;;;;;;3.76;79.72;96067.28;5038051;28;20206;-70
2021/12/23 12:11:17;;;;;;;16.57;6.10;;;;;;;4.41;78.72;96052.41;5038163;28;20229;-70
2021/12/23 12:13:43;;;;;;;6.07;4.53;;;;;;;4.08;78.90;96059.94;5033517;28;20258;-70
2021/12/23 12:16:29;;;;;;;9.17;4.43;;;;;;;4.26;78.80;96069.50;5038553;28;20203;-70
2021/12/23 12:18:57;;;;;;;7.53;3.30;;;;;;;3.95;79.18;96067.25;5036745;28;20302;-70
2021/12/23 12:21:28;;;;;;;8.23;4.60;;;;;;;4.22;79.36;96066.50;5037945;28;20215;-69
2021/12/23 12:24:09;;;;;;;6.50;3.87;;;;;;;4.49;78.17;96059.50;5037379;28;20235;-70
2021/12/23 12:26:51;;;;;;;21.50;7.75;;;;;;;4.20;79.56;96061.44;5036129;28;20443;-70
2021/12/23 12:29:20;;;;;;;11.53;5.87;;;;;;;4.22;79.05;96058.69;5037951;28;20211;-70
2021/12/23 12:31:47;;;;;;;5.10;2.43;;;;;;;3.85;78.60;96057.81;5038168;28;20204;-70
2021/12/23 12:34:13;;;;;;;7.23;3.87;;;;;;;4.02;78.20;96054.47;5036528;28;20606;-70
2021/12/23 12:36:43;;;;;;;5.43;4.27;;;;;;;4.19;78.55;96045.91;5037310;28;20781;-70
2021/12/23 12:39:24;;;;;;;14.40;4.07;;;;;;;4.57;77.90;96046.56;5038799;28;20204;-69